sensor_id;sensor_type;location;lat;lon;timestamp;temperature;humidity
51783;DHT22;37845;53.196;5.638;2023-02-08T01:34:05;0.90;99.90
51783;DHT22;37845;53.196;5.638;2023-02-08T05:44:18;-0.90;99.90
51783;DHT22;37845;53.196;5.638;2023-02-08T05:46:44;0.40;99.90
51783;DHT22;37845;53.196;5.638;2023-02-08T05:49:10;-0.90;99.90
51783;DHT22;37845;53.196;5.638;2023-02-08T05:51:35;0.50;99.90
51783;DHT22;37845;53.196;5.638;2023-02-08T05:54:01;1.10;99.90
51783;DHT22;37845;53.196;5.638;2023-02-08T05:56:26;-0.60;99.90
51783;DHT22;37845;53.196;5.638;2023-02-08T05:58:53;0.70;99.90
51783;DHT22;37845;53.196;5.638;2023-02-08T06:01:20;0.90;99.90
51783;DHT22;37845;53.196;5.638;2023-02-08T06:03:45;1.10;99.90
51783;DHT22;37845;53.196;5.638;2023-02-08T06:06:12;-1.00;99.90
51783;DHT22;37845;53.196;5.638;2023-02-08T06:08:37;-1.00;99.90
51783;DHT22;37845;53.196;5.638;2023-02-08T06:11:03;-0.80;99.90
51783;DHT22;37845;53.196;5.638;2023-02-08T06:13:29;-1.00;99.90
51783;DHT22;37845;53.196;5.638;2023-02-08T06:15:55;0.90;99.90
51783;DHT22;37845;53.196;5.638;2023-02-08T06:18:21;-0.80;99.90
51783;DHT22;37845;53.196;5.638;2023-02-08T06:20:46;-0.10;99.90
51783;DHT22;37845;53.196;5.638;2023-02-08T06:23:12;0.00;99.90
51783;DHT22;37845;53.196;5.638;2023-02-08T06:25:38;-1.20;99.90
51783;DHT22;37845;53.196;5.638;2023-02-08T06:28:04;-0.90;99.90
51783;DHT22;37845;53.196;5.638;2023-02-08T06:30:30;-1.10;99.90
51783;DHT22;37845;53.196;5.638;2023-02-08T06:32:55;0.30;99.90
51783;DHT22;37845;53.196;5.638;2023-02-08T06:35:21;-0.30;99.90
51783;DHT22;37845;53.196;5.638;2023-02-08T06:37:47;-0.90;99.90
51783;DHT22;37845;53.196;5.638;2023-02-08T06:40:12;-1.00;99.90
51783;DHT22;37845;53.196;5.638;2023-02-08T06:42:38;1.00;99.90
51783;DHT22;37845;53.196;5.638;2023-02-08T06:45:04;-1.00;99.90
51783;DHT22;37845;53.196;5.638;2023-02-08T06:47:35;-0.90;99.90
51783;DHT22;37845;53.196;5.638;2023-02-08T07:02:18;1.00;99.90
51783;DHT22;37845;53.196;5.638;2023-02-08T07:04:44;-0.10;99.90
51783;DHT22;37845;53.196;5.638;2023-02-08T07:07:13;-1.00;99.90
51783;DHT22;37845;53.196;5.638;2023-02-08T07:09:48;-0.90;99.90
51783;DHT22;37845;53.196;5.638;2023-02-08T07:12:14;0.20;99.90
51783;DHT22;37845;53.196;5.638;2023-02-08T07:14:40;1.10;99.90
51783;DHT22;37845;53.196;5.638;2023-02-08T07:17:07;-1.00;99.90
51783;DHT22;37845;53.196;5.638;2023-02-08T07:19:33;-1.00;99.90
51783;DHT22;37845;53.196;5.638;2023-02-08T07:21:59;0.50;99.90
51783;DHT22;37845;53.196;5.638;2023-02-08T07:24:29;1.30;99.90
51783;DHT22;37845;53.196;5.638;2023-02-08T07:26:54;-0.90;99.90
51783;DHT22;37845;53.196;5.638;2023-02-08T07:29:20;0.80;99.90
51783;DHT22;37845;53.196;5.638;2023-02-08T07:31:49;0.00;99.90
51783;DHT22;37845;53.196;5.638;2023-02-08T07:34:14;-0.80;99.90
51783;DHT22;37845;53.196;5.638;2023-02-08T07:36:46;1.00;99.90
51783;DHT22;37845;53.196;5.638;2023-02-08T07:39:13;0.70;99.90
51783;DHT22;37845;53.196;5.638;2023-02-08T07:41:38;0.80;99.90
51783;DHT22;37845;53.196;5.638;2023-02-08T07:44:04;-0.30;99.90
51783;DHT22;37845;53.196;5.638;2023-02-08T07:46:35;0.80;99.90
51783;DHT22;37845;53.196;5.638;2023-02-08T07:49:00;-1.00;99.90
51783;DHT22;37845;53.196;5.638;2023-02-08T08:42:59;-0.50;99.90
51783;DHT22;37845;53.196;5.638;2023-02-08T08:59:14;-0.80;99.90
51783;DHT22;37845;53.196;5.638;2023-02-08T09:01:40;0.70;99.90
51783;DHT22;37845;53.196;5.638;2023-02-08T09:04:07;1.40;99.90
51783;DHT22;37845;53.196;5.638;2023-02-08T09:06:38;0.50;99.90
51783;DHT22;37845;53.196;5.638;2023-02-08T09:09:04;-1.20;99.90
51783;DHT22;37845;53.196;5.638;2023-02-08T09:11:30;-1.20;99.90
51783;DHT22;37845;53.196;5.638;2023-02-08T09:14:06;1.20;99.90
51783;DHT22;37845;53.196;5.638;2023-02-08T09:16:35;1.90;99.90
51783;DHT22;37845;53.196;5.638;2023-02-08T09:19:04;0.30;99.90
51783;DHT22;37845;53.196;5.638;2023-02-08T09:21:30;0.70;99.90
51783;DHT22;37845;53.196;5.638;2023-02-08T09:23:56;1.80;99.90
51783;DHT22;37845;53.196;5.638;2023-02-08T09:26:22;1.80;99.90
51783;DHT22;37845;53.196;5.638;2023-02-08T09:28:48;2.60;99.90
51783;DHT22;37845;53.196;5.638;2023-02-08T09:31:19;2.80;99.90
51783;DHT22;37845;53.196;5.638;2023-02-08T09:33:45;0.90;99.90
51783;DHT22;37845;53.196;5.638;2023-02-08T09:36:11;0.80;99.90
51783;DHT22;37845;53.196;5.638;2023-02-08T09:38:37;2.20;99.90
51783;DHT22;37845;53.196;5.638;2023-02-08T09:43:58;1.00;99.90
51783;DHT22;37845;53.196;5.638;2023-02-08T09:46:27;1.00;99.90
51783;DHT22;37845;53.196;5.638;2023-02-08T09:48:55;1.10;99.90
51783;DHT22;37845;53.196;5.638;2023-02-08T09:51:34;1.20;99.90
51783;DHT22;37845;53.196;5.638;2023-02-08T09:54:02;1.20;99.90
51783;DHT22;37845;53.196;5.638;2023-02-08T09:56:32;2.40;99.90
51783;DHT22;37845;53.196;5.638;2023-02-08T09:59:00;1.40;99.90
51783;DHT22;37845;53.196;5.638;2023-02-08T10:01:27;1.40;99.90
51783;DHT22;37845;53.196;5.638;2023-02-08T10:03:58;1.50;99.90
51783;DHT22;37845;53.196;5.638;2023-02-08T10:06:26;1.60;99.90
51783;DHT22;37845;53.196;5.638;2023-02-08T10:08:51;1.60;99.90
51783;DHT22;37845;53.196;5.638;2023-02-08T10:16:47;1.90;99.90
51783;DHT22;37845;53.196;5.638;2023-02-08T10:30:08;2.30;99.90
51783;DHT22;37845;53.196;5.638;2023-02-08T10:35:11;3.40;99.90
51783;DHT22;37845;53.196;5.638;2023-02-08T10:37:38;2.50;99.90
51783;DHT22;37845;53.196;5.638;2023-02-08T10:42:37;2.60;99.90
51783;DHT22;37845;53.196;5.638;2023-02-08T10:47:48;2.80;99.90
51783;DHT22;37845;53.196;5.638;2023-02-08T10:50:37;4.30;99.90
51783;DHT22;37845;53.196;5.638;2023-02-08T10:53:01;2.40;99.90
51783;DHT22;37845;53.196;5.638;2023-02-08T10:55:28;3.00;99.90
51783;DHT22;37845;53.196;5.638;2023-02-08T10:57:56;3.10;99.90
51783;DHT22;37845;53.196;5.638;2023-02-08T11:00:23;3.10;99.90
51783;DHT22;37845;53.196;5.638;2023-02-08T11:02:51;3.10;99.90
51783;DHT22;37845;53.196;5.638;2023-02-08T11:05:18;4.20;99.90
51783;DHT22;37845;53.196;5.638;2023-02-08T11:07:44;3.20;99.90
51783;DHT22;37845;53.196;5.638;2023-02-08T11:12:40;3.30;99.90
51783;DHT22;37845;53.196;5.638;2023-02-08T11:15:06;3.30;99.90
51783;DHT22;37845;53.196;5.638;2023-02-08T11:17:45;3.40;99.90
51783;DHT22;37845;53.196;5.638;2023-02-08T11:20:19;3.40;99.90
51783;DHT22;37845;53.196;5.638;2023-02-08T11:22:46;3.50;99.90
51783;DHT22;37845;53.196;5.638;2023-02-08T11:25:12;4.90;99.90
51783;DHT22;37845;53.196;5.638;2023-02-08T11:27:54;3.60;99.90
51783;DHT22;37845;53.196;5.638;2023-02-08T11:30:21;3.60;99.90
51783;DHT22;37845;53.196;5.638;2023-02-08T11:32:48;3.70;99.90
51783;DHT22;37845;53.196;5.638;2023-02-08T12:01:43;4.20;99.90
51783;DHT22;37845;53.196;5.638;2023-02-08T12:04:09;4.20;99.90
51783;DHT22;37845;53.196;5.638;2023-02-08T12:06:48;4.20;99.90
51783;DHT22;37845;53.196;5.638;2023-02-08T12:11:49;4.30;99.90
51783;DHT22;37845;53.196;5.638;2023-02-08T12:22:18;4.50;99.90
51783;DHT22;37845;53.196;5.638;2023-02-08T12:30:09;4.50;99.90
51783;DHT22;37845;53.196;5.638;2023-02-08T12:35:29;4.50;99.90
51783;DHT22;37845;53.196;5.638;2023-02-08T12:54:03;4.80;99.90
51783;DHT22;37845;53.196;5.638;2023-02-08T12:56:44;4.70;99.90
51783;DHT22;37845;53.196;5.638;2023-02-08T12:59:22;4.70;99.90
51783;DHT22;37845;53.196;5.638;2023-02-08T13:01:49;6.00;99.90
51783;DHT22;37845;53.196;5.638;2023-02-08T13:04:17;4.70;99.90
51783;DHT22;37845;53.196;5.638;2023-02-08T13:12:16;4.90;99.90
51783;DHT22;37845;53.196;5.638;2023-02-08T13:17:19;4.90;99.90
51783;DHT22;37845;53.196;5.638;2023-02-08T13:22:31;4.90;99.90
51783;DHT22;37845;53.196;5.638;2023-02-08T13:24:58;4.90;99.90
51783;DHT22;37845;53.196;5.638;2023-02-08T13:27:25;4.90;99.90
51783;DHT22;37845;53.196;5.638;2023-02-08T13:29:51;4.90;99.90
51783;DHT22;37845;53.196;5.638;2023-02-08T13:34:44;5.00;99.90
51783;DHT22;37845;53.196;5.638;2023-02-08T13:37:21;5.00;99.90
51783;DHT22;37845;53.196;5.638;2023-02-08T13:39:47;5.00;99.90
51783;DHT22;37845;53.196;5.638;2023-02-08T13:44:55;5.00;99.90
51783;DHT22;37845;53.196;5.638;2023-02-08T13:47:23;5.00;99.90
51783;DHT22;37845;53.196;5.638;2023-02-08T13:57:52;5.10;99.90
51783;DHT22;37845;53.196;5.638;2023-02-08T14:00:25;5.10;99.90
51783;DHT22;37845;53.196;5.638;2023-02-08T14:08:07;5.10;99.90
51783;DHT22;37845;53.196;5.638;2023-02-08T14:10:39;5.20;99.90
51783;DHT22;37845;53.196;5.638;2023-02-08T14:13:27;5.70;99.90
51783;DHT22;37845;53.196;5.638;2023-02-08T14:18:35;5.10;99.90
51783;DHT22;37845;53.196;5.638;2023-02-08T14:21:03;5.10;99.90
51783;DHT22;37845;53.196;5.638;2023-02-08T14:23:29;5.10;99.90
51783;DHT22;37845;53.196;5.638;2023-02-08T14:25:56;5.10;99.90
51783;DHT22;37845;53.196;5.638;2023-02-08T14:28:28;6.60;99.90
51783;DHT22;37845;53.196;5.638;2023-02-08T14:30:55;5.10;99.90
51783;DHT22;37845;53.196;5.638;2023-02-08T14:33:41;5.20;99.90
51783;DHT22;37845;53.196;5.638;2023-02-08T14:38:52;5.30;99.90
51783;DHT22;37845;53.196;5.638;2023-02-08T14:46:47;5.30;99.90
51783;DHT22;37845;53.196;5.638;2023-02-08T14:49:13;5.30;99.90
51783;DHT22;37845;53.196;5.638;2023-02-08T14:51:41;5.40;99.90
51783;DHT22;37845;53.196;5.638;2023-02-08T14:54:28;5.60;99.90
51783;DHT22;37845;53.196;5.638;2023-02-08T14:56:58;5.40;99.90
51783;DHT22;37845;53.196;5.638;2023-02-08T14:59:26;5.40;99.90
51783;DHT22;37845;53.196;5.638;2023-02-08T15:02:02;5.40;99.90
51783;DHT22;37845;53.196;5.638;2023-02-08T15:04:28;5.40;99.90
51783;DHT22;37845;53.196;5.638;2023-02-08T15:09:36;5.40;99.90
51783;DHT22;37845;53.196;5.638;2023-02-08T15:14:43;5.40;99.90
51783;DHT22;37845;53.196;5.638;2023-02-08T15:17:20;5.30;99.90
51783;DHT22;37845;53.196;5.638;2023-02-08T15:19:46;5.40;99.90
51783;DHT22;37845;53.196;5.638;2023-02-08T15:24:55;5.40;99.90
51783;DHT22;37845;53.196;5.638;2023-02-08T15:27:22;5.30;99.90
51783;DHT22;37845;53.196;5.638;2023-02-08T15:29:48;5.30;99.90
51783;DHT22;37845;53.196;5.638;2023-02-08T15:32:15;5.30;99.90
51783;DHT22;37845;53.196;5.638;2023-02-08T15:34:42;5.30;99.90
51783;DHT22;37845;53.196;5.638;2023-02-08T15:37:12;5.30;99.90
51783;DHT22;37845;53.196;5.638;2023-02-08T15:39:40;5.30;99.90
51783;DHT22;37845;53.196;5.638;2023-02-08T15:42:18;5.30;99.90
51783;DHT22;37845;53.196;5.638;2023-02-08T15:44:47;4.80;99.90
51783;DHT22;37845;53.196;5.638;2023-02-08T15:55:21;5.10;99.90
51783;DHT22;37845;53.196;5.638;2023-02-08T15:57:52;5.00;99.90
51783;DHT22;37845;53.196;5.638;2023-02-08T16:00:20;5.00;99.90
51783;DHT22;37845;53.196;5.638;2023-02-08T16:02:50;5.10;99.90
51783;DHT22;37845;53.196;5.638;2023-02-08T16:05:38;4.90;99.90
51783;DHT22;37845;53.196;5.638;2023-02-08T16:08:03;4.90;99.90
51783;DHT22;37845;53.196;5.638;2023-02-08T16:10:33;4.90;99.90
51783;DHT22;37845;53.196;5.638;2023-02-08T16:13:02;4.90;99.90
51783;DHT22;37845;53.196;5.638;2023-02-08T16:15:33;4.90;99.90
51783;DHT22;37845;53.196;5.638;2023-02-08T16:17:59;4.80;99.90
51783;DHT22;37845;53.196;5.638;2023-02-08T16:20:29;5.30;99.90
51783;DHT22;37845;53.196;5.638;2023-02-08T16:22:56;4.80;99.90
51783;DHT22;37845;53.196;5.638;2023-02-08T16:25:24;4.70;99.90
51783;DHT22;37845;53.196;5.638;2023-02-08T16:27:57;5.70;99.90
51783;DHT22;37845;53.196;5.638;2023-02-08T16:30:22;5.90;99.90
51783;DHT22;37845;53.196;5.638;2023-02-08T16:32:48;5.00;99.90
51783;DHT22;37845;53.196;5.638;2023-02-08T16:35:18;4.90;99.90
51783;DHT22;37845;53.196;5.638;2023-02-08T16:37:51;4.50;99.90
51783;DHT22;37845;53.196;5.638;2023-02-08T16:42:43;4.50;99.90
51783;DHT22;37845;53.196;5.638;2023-02-08T16:47:44;4.40;99.90
51783;DHT22;37845;53.196;5.638;2023-02-08T16:50:11;4.40;99.90
51783;DHT22;37845;53.196;5.638;2023-02-08T16:52:38;5.40;99.90
51783;DHT22;37845;53.196;5.638;2023-02-08T16:55:04;4.40;99.90
51783;DHT22;37845;53.196;5.638;2023-02-08T16:57:37;4.30;99.90
51783;DHT22;37845;53.196;5.638;2023-02-08T17:00:11;4.30;99.90
51783;DHT22;37845;53.196;5.638;2023-02-08T17:02:37;4.30;99.90
51783;DHT22;37845;53.196;5.638;2023-02-08T17:05:02;4.40;99.90
51783;DHT22;37845;53.196;5.638;2023-02-08T17:07:28;4.20;99.90
51783;DHT22;37845;53.196;5.638;2023-02-08T17:09:56;4.20;99.90
51783;DHT22;37845;53.196;5.638;2023-02-08T17:12:22;4.50;99.90
51783;DHT22;37845;53.196;5.638;2023-02-08T17:14:48;5.30;99.90
51783;DHT22;37845;53.196;5.638;2023-02-08T17:17:14;4.20;99.90
51783;DHT22;37845;53.196;5.638;2023-02-08T17:19:39;4.10;99.90
51783;DHT22;37845;53.196;5.638;2023-02-08T17:22:05;4.10;99.90
51783;DHT22;37845;53.196;5.638;2023-02-08T17:24:31;4.90;99.90
51783;DHT22;37845;53.196;5.638;2023-02-08T17:26:56;4.00;99.90
51783;DHT22;37845;53.196;5.638;2023-02-08T17:29:22;4.00;99.90
51783;DHT22;37845;53.196;5.638;2023-02-08T17:31:48;4.10;99.90
51783;DHT22;37845;53.196;5.638;2023-02-08T17:34:14;3.90;99.90
51783;DHT22;37845;53.196;5.638;2023-02-08T17:36:42;3.80;99.90
51783;DHT22;37845;53.196;5.638;2023-02-08T17:39:07;3.80;99.90
51783;DHT22;37845;53.196;5.638;2023-02-08T18:07:42;3.50;99.90
51783;DHT22;37845;53.196;5.638;2023-02-08T18:10:12;3.00;99.90
51783;DHT22;37845;53.196;5.638;2023-02-08T18:19:17;4.30;99.90
51783;DHT22;37845;53.196;5.638;2023-02-08T18:21:57;3.50;99.90
51783;DHT22;37845;53.196;5.638;2023-02-08T18:24:31;3.40;99.90
51783;DHT22;37845;53.196;5.638;2023-02-08T18:27:04;3.30;99.90
51783;DHT22;37845;53.196;5.638;2023-02-08T18:29:35;3.70;99.90
51783;DHT22;37845;53.196;5.638;2023-02-08T18:32:09;3.30;99.90
51783;DHT22;37845;53.196;5.638;2023-02-08T18:34:43;3.40;99.90
51783;DHT22;37845;53.196;5.638;2023-02-08T18:37:12;3.40;99.90
51783;DHT22;37845;53.196;5.638;2023-02-08T18:39:41;3.40;99.90
51783;DHT22;37845;53.196;5.638;2023-02-08T18:42:07;4.50;99.90
51783;DHT22;37845;53.196;5.638;2023-02-08T18:44:36;3.40;99.90
51783;DHT22;37845;53.196;5.638;2023-02-08T19:17:19;2.80;99.90
51783;DHT22;37845;53.196;5.638;2023-02-08T19:29:00;2.80;99.90
51783;DHT22;37845;53.196;5.638;2023-02-08T19:35:12;3.50;99.90
51783;DHT22;37845;53.196;5.638;2023-02-08T19:52:35;2.70;99.90
51783;DHT22;37845;53.196;5.638;2023-02-08T19:55:03;3.10;99.90
51783;DHT22;37845;53.196;5.638;2023-02-08T19:57:38;2.90;99.90
51783;DHT22;37845;53.196;5.638;2023-02-08T20:00:13;2.70;99.90
51783;DHT22;37845;53.196;5.638;2023-02-08T20:02:44;2.90;99.90
51783;DHT22;37845;53.196;5.638;2023-02-08T20:28:33;2.40;99.90
51783;DHT22;37845;53.196;5.638;2023-02-08T20:37:08;2.40;99.90
51783;DHT22;37845;53.196;5.638;2023-02-08T20:39:34;0.70;99.90
51783;DHT22;37845;53.196;5.638;2023-02-08T21:09:15;1.10;99.90
51783;DHT22;37845;53.196;5.638;2023-02-08T21:20:31;2.10;99.90
51783;DHT22;37845;53.196;5.638;2023-02-08T21:29:19;2.10;99.90
51783;DHT22;37845;53.196;5.638;2023-02-08T21:38:17;2.30;99.90
51783;DHT22;37845;53.196;5.638;2023-02-08T23:27:36;1.40;99.90
51783;DHT22;37845;53.196;5.638;2023-02-08T23:51:24;1.30;99.90
51783;DHT22;37845;53.196;5.638;2023-02-08T23:53:50;2.60;99.90
51783;DHT22;37845;53.196;5.638;2023-02-08T23:56:26;1.20;99.90
51783;DHT22;37845;53.196;5.638;2023-02-08T23:58:56;1.10;99.90
